sensor_id;sensor_type;location;lat;lon;timestamp;temperature;humidity
17348;DHT22;8791;50.876;4.342;2022-10-13T00:00:14;14.40;99.90
17348;DHT22;8791;50.876;4.342;2022-10-13T00:02:41;14.60;99.90
17348;DHT22;8791;50.876;4.342;2022-10-13T00:05:08;14.50;99.90
17348;DHT22;8791;50.876;4.342;2022-10-13T00:07:35;14.50;99.90
17348;DHT22;8791;50.876;4.342;2022-10-13T00:10:02;14.50;99.90
17348;DHT22;8791;50.876;4.342;2022-10-13T00:12:29;14.40;99.90
17348;DHT22;8791;50.876;4.342;2022-10-13T00:14:57;14.50;99.90
17348;DHT22;8791;50.876;4.342;2022-10-13T00:17:24;14.50;99.90
17348;DHT22;8791;50.876;4.342;2022-10-13T00:19:51;14.50;99.90
17348;DHT22;8791;50.876;4.342;2022-10-13T00:22:17;14.50;99.90
17348;DHT22;8791;50.876;4.342;2022-10-13T00:24:49;14.40;99.90
17348;DHT22;8791;50.876;4.342;2022-10-13T00:27:16;14.50;99.90
17348;DHT22;8791;50.876;4.342;2022-10-13T00:29:43;14.50;99.90
17348;DHT22;8791;50.876;4.342;2022-10-13T00:32:11;14.60;99.90
17348;DHT22;8791;50.876;4.342;2022-10-13T00:34:38;14.50;99.90
17348;DHT22;8791;50.876;4.342;2022-10-13T00:37:05;14.50;99.90
17348;DHT22;8791;50.876;4.342;2022-10-13T00:39:31;14.50;99.90
17348;DHT22;8791;50.876;4.342;2022-10-13T00:41:59;14.60;99.90
17348;DHT22;8791;50.876;4.342;2022-10-13T00:44:56;14.60;99.90
17348;DHT22;8791;50.876;4.342;2022-10-13T00:47:25;14.60;99.90
17348;DHT22;8791;50.876;4.342;2022-10-13T00:49:54;14.60;99.90
17348;DHT22;8791;50.876;4.342;2022-10-13T00:52:22;14.60;99.90
17348;DHT22;8791;50.876;4.342;2022-10-13T00:54:51;14.60;99.90
17348;DHT22;8791;50.876;4.342;2022-10-13T00:57:18;14.60;99.90
17348;DHT22;8791;50.876;4.342;2022-10-13T00:59:46;14.50;99.90
17348;DHT22;8791;50.876;4.342;2022-10-13T01:02:14;14.40;99.90
17348;DHT22;8791;50.876;4.342;2022-10-13T01:04:45;14.40;99.90
17348;DHT22;8791;50.876;4.342;2022-10-13T01:07:13;14.40;99.90
17348;DHT22;8791;50.876;4.342;2022-10-13T01:09:41;14.60;99.90
17348;DHT22;8791;50.876;4.342;2022-10-13T01:12:19;14.60;99.90
17348;DHT22;8791;50.876;4.342;2022-10-13T01:14:53;14.60;99.90
17348;DHT22;8791;50.876;4.342;2022-10-13T01:17:28;14.60;99.90
17348;DHT22;8791;50.876;4.342;2022-10-13T01:26:22;14.80;99.90
17348;DHT22;8791;50.876;4.342;2022-10-13T01:29:12;14.70;99.90
17348;DHT22;8791;50.876;4.342;2022-10-13T01:31:48;14.70;99.90
17348;DHT22;8791;50.876;4.342;2022-10-13T01:34:20;14.70;99.90
17348;DHT22;8791;50.876;4.342;2022-10-13T01:36:54;14.60;99.90
17348;DHT22;8791;50.876;4.342;2022-10-13T01:39:30;14.50;99.90
17348;DHT22;8791;50.876;4.342;2022-10-13T01:42:05;14.40;99.90
17348;DHT22;8791;50.876;4.342;2022-10-13T01:44:39;14.40;99.90
17348;DHT22;8791;50.876;4.342;2022-10-13T01:47:09;14.40;99.90
17348;DHT22;8791;50.876;4.342;2022-10-13T01:49:38;14.20;99.90
17348;DHT22;8791;50.876;4.342;2022-10-13T01:52:07;14.20;99.90
17348;DHT22;8791;50.876;4.342;2022-10-13T01:54:35;14.30;99.90
17348;DHT22;8791;50.876;4.342;2022-10-13T01:57:02;14.30;99.90
17348;DHT22;8791;50.876;4.342;2022-10-13T01:59:31;14.30;99.90
17348;DHT22;8791;50.876;4.342;2022-10-13T02:02:07;14.30;99.90
17348;DHT22;8791;50.876;4.342;2022-10-13T02:04:47;14.40;99.90
17348;DHT22;8791;50.876;4.342;2022-10-13T02:07:23;14.20;99.90
17348;DHT22;8791;50.876;4.342;2022-10-13T02:09:58;14.20;99.90
17348;DHT22;8791;50.876;4.342;2022-10-13T02:12:30;14.20;99.90
17348;DHT22;8791;50.876;4.342;2022-10-13T02:15:00;14.20;99.90
17348;DHT22;8791;50.876;4.342;2022-10-13T02:17:28;14.20;99.90
17348;DHT22;8791;50.876;4.342;2022-10-13T02:19:58;14.20;99.90
17348;DHT22;8791;50.876;4.342;2022-10-13T02:22:32;14.10;99.90
17348;DHT22;8791;50.876;4.342;2022-10-13T02:25:02;14.20;99.90
17348;DHT22;8791;50.876;4.342;2022-10-13T02:27:29;14.10;99.90
17348;DHT22;8791;50.876;4.342;2022-10-13T02:29:56;14.10;99.90
17348;DHT22;8791;50.876;4.342;2022-10-13T02:32:23;14.10;99.90
17348;DHT22;8791;50.876;4.342;2022-10-13T02:34:50;14.20;99.90
17348;DHT22;8791;50.876;4.342;2022-10-13T02:37:19;14.20;99.90
17348;DHT22;8791;50.876;4.342;2022-10-13T02:39:45;14.30;99.90
17348;DHT22;8791;50.876;4.342;2022-10-13T02:42:12;14.20;99.90
17348;DHT22;8791;50.876;4.342;2022-10-13T02:44:39;14.30;99.90
17348;DHT22;8791;50.876;4.342;2022-10-13T02:47:06;14.20;99.90
17348;DHT22;8791;50.876;4.342;2022-10-13T02:49:33;14.20;99.90
17348;DHT22;8791;50.876;4.342;2022-10-13T02:51:59;14.20;99.90
17348;DHT22;8791;50.876;4.342;2022-10-13T02:54:28;14.10;99.90
17348;DHT22;8791;50.876;4.342;2022-10-13T02:56:54;14.10;99.90
17348;DHT22;8791;50.876;4.342;2022-10-13T02:59:21;14.10;99.90
17348;DHT22;8791;50.876;4.342;2022-10-13T03:01:48;14.20;99.90
17348;DHT22;8791;50.876;4.342;2022-10-13T03:04:15;14.10;99.90
17348;DHT22;8791;50.876;4.342;2022-10-13T03:06:41;14.10;99.90
17348;DHT22;8791;50.876;4.342;2022-10-13T03:09:08;14.00;99.90
17348;DHT22;8791;50.876;4.342;2022-10-13T03:11:37;14.00;99.90
17348;DHT22;8791;50.876;4.342;2022-10-13T03:14:03;14.00;99.90
17348;DHT22;8791;50.876;4.342;2022-10-13T03:16:30;14.10;99.90
17348;DHT22;8791;50.876;4.342;2022-10-13T03:18:57;14.10;99.90
17348;DHT22;8791;50.876;4.342;2022-10-13T03:21:24;14.00;99.90
17348;DHT22;8791;50.876;4.342;2022-10-13T03:23:50;14.00;99.90
17348;DHT22;8791;50.876;4.342;2022-10-13T03:26:17;14.00;99.90
17348;DHT22;8791;50.876;4.342;2022-10-13T03:28:49;14.00;99.90
17348;DHT22;8791;50.876;4.342;2022-10-13T03:31:16;13.90;99.90
17348;DHT22;8791;50.876;4.342;2022-10-13T03:33:44;13.90;99.90
17348;DHT22;8791;50.876;4.342;2022-10-13T03:36:11;13.80;99.90
17348;DHT22;8791;50.876;4.342;2022-10-13T03:38:39;13.90;99.90
17348;DHT22;8791;50.876;4.342;2022-10-13T03:41:07;13.90;99.90
17348;DHT22;8791;50.876;4.342;2022-10-13T03:43:34;13.80;99.90
17348;DHT22;8791;50.876;4.342;2022-10-13T03:46:04;13.80;99.90
17348;DHT22;8791;50.876;4.342;2022-10-13T03:48:31;13.90;99.90
17348;DHT22;8791;50.876;4.342;2022-10-13T03:50:58;13.90;99.90
17348;DHT22;8791;50.876;4.342;2022-10-13T03:53:25;14.00;99.90
17348;DHT22;8791;50.876;4.342;2022-10-13T03:55:54;13.90;99.90
17348;DHT22;8791;50.876;4.342;2022-10-13T03:58:22;14.00;99.90
17348;DHT22;8791;50.876;4.342;2022-10-13T04:00:50;13.90;99.90
17348;DHT22;8791;50.876;4.342;2022-10-13T04:03:19;13.90;99.90
17348;DHT22;8791;50.876;4.342;2022-10-13T04:05:46;13.90;99.90
17348;DHT22;8791;50.876;4.342;2022-10-13T04:08:13;13.90;99.90
17348;DHT22;8791;50.876;4.342;2022-10-13T04:10:41;13.90;99.90
17348;DHT22;8791;50.876;4.342;2022-10-13T04:13:07;13.80;99.90
17348;DHT22;8791;50.876;4.342;2022-10-13T04:15:38;13.80;99.90
17348;DHT22;8791;50.876;4.342;2022-10-13T04:18:07;13.60;99.90
17348;DHT22;8791;50.876;4.342;2022-10-13T04:20:37;13.60;99.90
17348;DHT22;8791;50.876;4.342;2022-10-13T04:23:04;13.60;99.90
17348;DHT22;8791;50.876;4.342;2022-10-13T04:25:33;13.70;99.90
17348;DHT22;8791;50.876;4.342;2022-10-13T04:28:00;13.90;99.90
17348;DHT22;8791;50.876;4.342;2022-10-13T04:30:27;13.90;99.90
17348;DHT22;8791;50.876;4.342;2022-10-13T04:32:54;13.90;99.90
17348;DHT22;8791;50.876;4.342;2022-10-13T04:35:21;13.90;99.90
17348;DHT22;8791;50.876;4.342;2022-10-13T04:37:49;13.80;99.90
17348;DHT22;8791;50.876;4.342;2022-10-13T04:40:16;13.90;99.90
17348;DHT22;8791;50.876;4.342;2022-10-13T04:42:43;14.00;99.90
17348;DHT22;8791;50.876;4.342;2022-10-13T04:45:10;14.10;99.90
17348;DHT22;8791;50.876;4.342;2022-10-13T04:47:36;14.00;99.90
17348;DHT22;8791;50.876;4.342;2022-10-13T04:50:04;14.00;99.90
17348;DHT22;8791;50.876;4.342;2022-10-13T04:52:32;14.00;99.90
17348;DHT22;8791;50.876;4.342;2022-10-13T04:55:01;14.00;99.90
17348;DHT22;8791;50.876;4.342;2022-10-13T04:57:27;13.90;99.90
17348;DHT22;8791;50.876;4.342;2022-10-13T04:59:55;14.00;99.90
17348;DHT22;8791;50.876;4.342;2022-10-13T05:02:22;14.00;99.90
17348;DHT22;8791;50.876;4.342;2022-10-13T05:04:48;14.00;99.90
17348;DHT22;8791;50.876;4.342;2022-10-13T05:07:15;14.10;99.90
17348;DHT22;8791;50.876;4.342;2022-10-13T05:09:42;14.10;99.90
17348;DHT22;8791;50.876;4.342;2022-10-13T05:12:10;14.10;99.90
17348;DHT22;8791;50.876;4.342;2022-10-13T05:14:37;14.00;99.90
17348;DHT22;8791;50.876;4.342;2022-10-13T05:17:04;13.90;99.90
17348;DHT22;8791;50.876;4.342;2022-10-13T05:19:31;13.90;99.90
17348;DHT22;8791;50.876;4.342;2022-10-13T05:21:58;14.00;99.90
17348;DHT22;8791;50.876;4.342;2022-10-13T05:24:25;14.30;99.90
17348;DHT22;8791;50.876;4.342;2022-10-13T05:27:02;14.10;99.90
17348;DHT22;8791;50.876;4.342;2022-10-13T05:29:30;14.00;99.90
17348;DHT22;8791;50.876;4.342;2022-10-13T05:31:57;13.90;99.90
17348;DHT22;8791;50.876;4.342;2022-10-13T05:34:23;13.90;99.90
17348;DHT22;8791;50.876;4.342;2022-10-13T05:36:50;13.80;99.90
17348;DHT22;8791;50.876;4.342;2022-10-13T05:39:17;14.00;99.90
17348;DHT22;8791;50.876;4.342;2022-10-13T05:41:44;14.10;99.90
17348;DHT22;8791;50.876;4.342;2022-10-13T05:44:11;14.10;99.90
17348;DHT22;8791;50.876;4.342;2022-10-13T05:46:39;14.10;99.90
17348;DHT22;8791;50.876;4.342;2022-10-13T05:49:06;14.10;99.90
17348;DHT22;8791;50.876;4.342;2022-10-13T05:51:35;14.20;99.90
17348;DHT22;8791;50.876;4.342;2022-10-13T05:54:04;14.20;99.90
17348;DHT22;8791;50.876;4.342;2022-10-13T05:56:36;14.20;99.90
17348;DHT22;8791;50.876;4.342;2022-10-13T05:59:06;14.20;99.90
17348;DHT22;8791;50.876;4.342;2022-10-13T06:01:37;14.30;99.90
17348;DHT22;8791;50.876;4.342;2022-10-13T06:04:10;14.40;99.90
17348;DHT22;8791;50.876;4.342;2022-10-13T06:06:37;14.10;99.90
17348;DHT22;8791;50.876;4.342;2022-10-13T06:09:04;14.00;99.90
17348;DHT22;8791;50.876;4.342;2022-10-13T06:11:31;13.80;99.90
17348;DHT22;8791;50.876;4.342;2022-10-13T06:13:58;13.70;99.90
17348;DHT22;8791;50.876;4.342;2022-10-13T06:16:24;13.80;99.90
17348;DHT22;8791;50.876;4.342;2022-10-13T06:18:51;13.90;99.90
17348;DHT22;8791;50.876;4.342;2022-10-13T06:21:19;14.00;99.90
17348;DHT22;8791;50.876;4.342;2022-10-13T06:23:46;14.20;99.90
17348;DHT22;8791;50.876;4.342;2022-10-13T06:26:13;14.30;99.90
17348;DHT22;8791;50.876;4.342;2022-10-13T06:28:40;14.40;99.90
17348;DHT22;8791;50.876;4.342;2022-10-13T06:31:07;14.50;99.90
17348;DHT22;8791;50.876;4.342;2022-10-13T06:33:33;14.50;99.90
17348;DHT22;8791;50.876;4.342;2022-10-13T06:36:01;14.40;99.90
17348;DHT22;8791;50.876;4.342;2022-10-13T06:38:30;14.30;99.90
17348;DHT22;8791;50.876;4.342;2022-10-13T06:40:59;14.40;99.90
17348;DHT22;8791;50.876;4.342;2022-10-13T06:43:26;14.40;99.90
17348;DHT22;8791;50.876;4.342;2022-10-13T06:45:56;14.30;99.90
17348;DHT22;8791;50.876;4.342;2022-10-13T06:48:22;14.20;99.90
17348;DHT22;8791;50.876;4.342;2022-10-13T06:50:49;14.30;99.90
17348;DHT22;8791;50.876;4.342;2022-10-13T06:53:16;14.30;99.90
17348;DHT22;8791;50.876;4.342;2022-10-13T06:55:44;14.40;99.90
17348;DHT22;8791;50.876;4.342;2022-10-13T06:58:11;14.80;99.90
17348;DHT22;8791;50.876;4.342;2022-10-13T07:00:39;14.70;99.90
17348;DHT22;8791;50.876;4.342;2022-10-13T07:03:06;14.60;99.90
17348;DHT22;8791;50.876;4.342;2022-10-13T07:05:33;14.40;99.90
17348;DHT22;8791;50.876;4.342;2022-10-13T07:08:00;14.30;99.90
17348;DHT22;8791;50.876;4.342;2022-10-13T07:10:26;14.30;99.90
17348;DHT22;8791;50.876;4.342;2022-10-13T07:12:55;14.30;99.90
17348;DHT22;8791;50.876;4.342;2022-10-13T07:15:22;14.20;99.90
17348;DHT22;8791;50.876;4.342;2022-10-13T07:17:50;14.30;99.90
17348;DHT22;8791;50.876;4.342;2022-10-13T07:20:18;14.30;99.90
17348;DHT22;8791;50.876;4.342;2022-10-13T07:22:45;14.40;99.90
17348;DHT22;8791;50.876;4.342;2022-10-13T07:25:12;14.40;99.90
17348;DHT22;8791;50.876;4.342;2022-10-13T07:27:39;14.50;99.90
17348;DHT22;8791;50.876;4.342;2022-10-13T07:30:08;14.80;99.90
17348;DHT22;8791;50.876;4.342;2022-10-13T07:32:35;14.90;99.90
17348;DHT22;8791;50.876;4.342;2022-10-13T07:35:04;14.80;99.90
17348;DHT22;8791;50.876;4.342;2022-10-13T07:37:31;14.80;99.90
17348;DHT22;8791;50.876;4.342;2022-10-13T07:39:58;14.60;99.90
17348;DHT22;8791;50.876;4.342;2022-10-13T07:42:25;14.50;99.90
17348;DHT22;8791;50.876;4.342;2022-10-13T07:44:52;14.50;99.90
17348;DHT22;8791;50.876;4.342;2022-10-13T07:47:20;14.50;99.90
17348;DHT22;8791;50.876;4.342;2022-10-13T07:49:47;14.40;99.90
17348;DHT22;8791;50.876;4.342;2022-10-13T07:52:14;14.40;99.90
17348;DHT22;8791;50.876;4.342;2022-10-13T07:54:41;14.50;99.90
17348;DHT22;8791;50.876;4.342;2022-10-13T07:57:07;14.80;99.90
17348;DHT22;8791;50.876;4.342;2022-10-13T07:59:34;15.00;99.90
17348;DHT22;8791;50.876;4.342;2022-10-13T08:02:01;14.80;99.90
17348;DHT22;8791;50.876;4.342;2022-10-13T08:04:30;14.60;99.90
17348;DHT22;8791;50.876;4.342;2022-10-13T08:06:57;14.40;99.90
17348;DHT22;8791;50.876;4.342;2022-10-13T08:09:24;14.40;99.90
17348;DHT22;8791;50.876;4.342;2022-10-13T08:11:51;14.40;99.90
17348;DHT22;8791;50.876;4.342;2022-10-13T08:14:19;14.40;99.90
17348;DHT22;8791;50.876;4.342;2022-10-13T08:16:46;14.60;99.90
17348;DHT22;8791;50.876;4.342;2022-10-13T08:19:13;14.60;99.90
17348;DHT22;8791;50.876;4.342;2022-10-13T08:21:42;14.80;99.90
17348;DHT22;8791;50.876;4.342;2022-10-13T08:24:12;15.00;99.90
17348;DHT22;8791;50.876;4.342;2022-10-13T08:26:40;15.10;99.90
17348;DHT22;8791;50.876;4.342;2022-10-13T08:29:07;14.70;99.90
17348;DHT22;8791;50.876;4.342;2022-10-13T08:31:34;14.60;99.90
17348;DHT22;8791;50.876;4.342;2022-10-13T08:34:00;14.50;99.90
17348;DHT22;8791;50.876;4.342;2022-10-13T08:36:27;14.50;99.90
17348;DHT22;8791;50.876;4.342;2022-10-13T08:38:55;14.80;99.90
17348;DHT22;8791;50.876;4.342;2022-10-13T08:41:24;15.00;99.90
17348;DHT22;8791;50.876;4.342;2022-10-13T08:43:55;15.00;99.90
17348;DHT22;8791;50.876;4.342;2022-10-13T08:46:25;15.10;99.90
17348;DHT22;8791;50.876;4.342;2022-10-13T08:48:52;15.10;99.90
17348;DHT22;8791;50.876;4.342;2022-10-13T08:51:19;15.10;99.90
17348;DHT22;8791;50.876;4.342;2022-10-13T08:53:47;15.10;99.90
17348;DHT22;8791;50.876;4.342;2022-10-13T08:56:18;15.00;99.90
17348;DHT22;8791;50.876;4.342;2022-10-13T08:58:47;15.00;99.90
17348;DHT22;8791;50.876;4.342;2022-10-13T09:01:16;15.00;99.90
17348;DHT22;8791;50.876;4.342;2022-10-13T09:03:48;14.90;99.90
17348;DHT22;8791;50.876;4.342;2022-10-13T09:06:18;15.00;99.90
17348;DHT22;8791;50.876;4.342;2022-10-13T09:08:52;15.10;99.90
17348;DHT22;8791;50.876;4.342;2022-10-13T09:11:24;15.30;99.90
17348;DHT22;8791;50.876;4.342;2022-10-13T09:13:54;15.20;99.90
17348;DHT22;8791;50.876;4.342;2022-10-13T09:16:27;15.40;99.90
17348;DHT22;8791;50.876;4.342;2022-10-13T09:18:53;15.40;99.90
17348;DHT22;8791;50.876;4.342;2022-10-13T09:21:22;15.60;99.90
17348;DHT22;8791;50.876;4.342;2022-10-13T09:23:50;15.70;99.90
17348;DHT22;8791;50.876;4.342;2022-10-13T09:26:20;15.90;99.90
17348;DHT22;8791;50.876;4.342;2022-10-13T09:28:50;15.40;99.90
17348;DHT22;8791;50.876;4.342;2022-10-13T09:31:20;15.40;99.90
17348;DHT22;8791;50.876;4.342;2022-10-13T09:33:57;15.20;99.90
17348;DHT22;8791;50.876;4.342;2022-10-13T09:36:24;15.00;99.90
17348;DHT22;8791;50.876;4.342;2022-10-13T09:39:06;15.00;99.90
17348;DHT22;8791;50.876;4.342;2022-10-13T09:41:34;15.20;99.90
17348;DHT22;8791;50.876;4.342;2022-10-13T09:44:09;15.60;99.90
17348;DHT22;8791;50.876;4.342;2022-10-13T09:46:44;15.50;99.90
17348;DHT22;8791;50.876;4.342;2022-10-13T09:49:29;15.40;99.90
17348;DHT22;8791;50.876;4.342;2022-10-13T09:51:59;15.30;99.90
17348;DHT22;8791;50.876;4.342;2022-10-13T09:54:34;15.30;99.90
17348;DHT22;8791;50.876;4.342;2022-10-13T09:57:05;15.50;99.90
17348;DHT22;8791;50.876;4.342;2022-10-13T09:59:38;15.40;99.90
17348;DHT22;8791;50.876;4.342;2022-10-13T10:02:18;15.40;99.90
17348;DHT22;8791;50.876;4.342;2022-10-13T10:04:46;15.40;99.90
17348;DHT22;8791;50.876;4.342;2022-10-13T10:07:17;15.50;99.90
17348;DHT22;8791;50.876;4.342;2022-10-13T10:09:48;15.60;99.90
17348;DHT22;8791;50.876;4.342;2022-10-13T10:12:19;15.50;99.90
17348;DHT22;8791;50.876;4.342;2022-10-13T10:14:48;15.70;99.90
17348;DHT22;8791;50.876;4.342;2022-10-13T10:17:19;15.80;99.90
17348;DHT22;8791;50.876;4.342;2022-10-13T10:19:58;15.80;99.90
17348;DHT22;8791;50.876;4.342;2022-10-13T10:22:34;15.80;99.90
17348;DHT22;8791;50.876;4.342;2022-10-13T10:25:19;15.70;99.90
17348;DHT22;8791;50.876;4.342;2022-10-13T10:27:54;15.70;99.90
17348;DHT22;8791;50.876;4.342;2022-10-13T10:30:28;15.70;99.90
17348;DHT22;8791;50.876;4.342;2022-10-13T10:33:01;15.80;99.90
17348;DHT22;8791;50.876;4.342;2022-10-13T10:35:39;15.90;99.90
17348;DHT22;8791;50.876;4.342;2022-10-13T10:38:19;15.90;99.90
17348;DHT22;8791;50.876;4.342;2022-10-13T10:40:50;15.80;99.90
17348;DHT22;8791;50.876;4.342;2022-10-13T10:43:29;15.80;99.90
17348;DHT22;8791;50.876;4.342;2022-10-13T10:45:59;15.60;99.90
17348;DHT22;8791;50.876;4.342;2022-10-13T10:48:32;15.10;99.90
17348;DHT22;8791;50.876;4.342;2022-10-13T10:51:00;15.00;99.90
17348;DHT22;8791;50.876;4.342;2022-10-13T10:53:33;15.00;99.90
17348;DHT22;8791;50.876;4.342;2022-10-13T10:56:07;15.00;99.90
17348;DHT22;8791;50.876;4.342;2022-10-13T10:58:43;14.90;99.90
17348;DHT22;8791;50.876;4.342;2022-10-13T11:01:27;14.80;99.90
17348;DHT22;8791;50.876;4.342;2022-10-13T11:04:00;14.80;99.90
17348;DHT22;8791;50.876;4.342;2022-10-13T11:06:36;14.90;99.90
17348;DHT22;8791;50.876;4.342;2022-10-13T11:09:04;14.80;99.90
17348;DHT22;8791;50.876;4.342;2022-10-13T11:11:36;14.60;99.90
17348;DHT22;8791;50.876;4.342;2022-10-13T11:14:27;14.40;99.90
17348;DHT22;8791;50.876;4.342;2022-10-13T11:17:09;14.40;99.90
17348;DHT22;8791;50.876;4.342;2022-10-13T11:19:37;14.30;99.90
17348;DHT22;8791;50.876;4.342;2022-10-13T11:22:23;14.30;99.90
17348;DHT22;8791;50.876;4.342;2022-10-13T11:27:52;14.40;99.90
17348;DHT22;8791;50.876;4.342;2022-10-13T11:30:46;14.50;99.90
17348;DHT22;8791;50.876;4.342;2022-10-13T11:33:54;14.60;99.90
17348;DHT22;8791;50.876;4.342;2022-10-13T11:36:45;14.80;99.90
17348;DHT22;8791;50.876;4.342;2022-10-13T11:40:04;15.00;99.90
17348;DHT22;8791;50.876;4.342;2022-10-13T11:45:49;15.10;99.90
17348;DHT22;8791;50.876;4.342;2022-10-13T11:48:41;15.10;99.90
17348;DHT22;8791;50.876;4.342;2022-10-13T11:51:23;15.30;99.90
17348;DHT22;8791;50.876;4.342;2022-10-13T11:53:56;15.50;99.90
17348;DHT22;8791;50.876;4.342;2022-10-13T11:56:33;15.50;99.90
17348;DHT22;8791;50.876;4.342;2022-10-13T11:59:00;15.50;99.90
17348;DHT22;8791;50.876;4.342;2022-10-13T12:01:27;15.50;99.90
17348;DHT22;8791;50.876;4.342;2022-10-13T12:03:54;15.50;99.90
17348;DHT22;8791;50.876;4.342;2022-10-13T12:06:31;15.50;99.90
17348;DHT22;8791;50.876;4.342;2022-10-13T12:09:01;15.20;99.90
17348;DHT22;8791;50.876;4.342;2022-10-13T12:11:30;15.00;99.90
17348;DHT22;8791;50.876;4.342;2022-10-13T12:13:57;15.00;99.90
17348;DHT22;8791;50.876;4.342;2022-10-13T12:16:26;15.00;99.90
17348;DHT22;8791;50.876;4.342;2022-10-13T12:19:07;15.00;99.90
17348;DHT22;8791;50.876;4.342;2022-10-13T12:21:47;15.10;99.90
17348;DHT22;8791;50.876;4.342;2022-10-13T12:24:14;15.20;99.90
17348;DHT22;8791;50.876;4.342;2022-10-13T12:26:41;15.20;99.90
17348;DHT22;8791;50.876;4.342;2022-10-13T12:29:11;15.30;99.90
17348;DHT22;8791;50.876;4.342;2022-10-13T12:31:40;15.40;99.90
17348;DHT22;8791;50.876;4.342;2022-10-13T12:34:20;15.20;99.90
17348;DHT22;8791;50.876;4.342;2022-10-13T12:36:54;15.30;99.90
17348;DHT22;8791;50.876;4.342;2022-10-13T12:39:22;15.60;99.90
17348;DHT22;8791;50.876;4.342;2022-10-13T12:41:51;15.80;99.90
17348;DHT22;8791;50.876;4.342;2022-10-13T12:44:20;15.80;99.90
17348;DHT22;8791;50.876;4.342;2022-10-13T12:46:49;15.70;99.90
17348;DHT22;8791;50.876;4.342;2022-10-13T12:49:21;15.50;99.90
17348;DHT22;8791;50.876;4.342;2022-10-13T12:51:50;15.40;99.90
17348;DHT22;8791;50.876;4.342;2022-10-13T12:54:22;15.50;99.90
17348;DHT22;8791;50.876;4.342;2022-10-13T12:56:51;15.70;99.90
17348;DHT22;8791;50.876;4.342;2022-10-13T12:59:20;15.60;99.90
17348;DHT22;8791;50.876;4.342;2022-10-13T13:01:52;15.70;99.90
17348;DHT22;8791;50.876;4.342;2022-10-13T13:04:28;15.80;99.90
17348;DHT22;8791;50.876;4.342;2022-10-13T13:06:57;15.80;99.90
17348;DHT22;8791;50.876;4.342;2022-10-13T13:09:29;15.60;99.90
17348;DHT22;8791;50.876;4.342;2022-10-13T13:12:27;15.60;99.90
17348;DHT22;8791;50.876;4.342;2022-10-13T13:14:56;15.60;99.90
17348;DHT22;8791;50.876;4.342;2022-10-13T13:17:28;15.60;99.90
17348;DHT22;8791;50.876;4.342;2022-10-13T13:19:56;15.60;99.90
17348;DHT22;8791;50.876;4.342;2022-10-13T13:22:23;15.60;99.90
17348;DHT22;8791;50.876;4.342;2022-10-13T13:24:52;15.40;99.90
17348;DHT22;8791;50.876;4.342;2022-10-13T13:27:24;15.10;99.90
17348;DHT22;8791;50.876;4.342;2022-10-13T13:29:52;15.20;99.90
17348;DHT22;8791;50.876;4.342;2022-10-13T13:32:22;15.10;99.90
17348;DHT22;8791;50.876;4.342;2022-10-13T13:34:49;15.20;99.90
17348;DHT22;8791;50.876;4.342;2022-10-13T13:37:23;15.20;99.90
17348;DHT22;8791;50.876;4.342;2022-10-13T13:39:52;15.30;99.90
17348;DHT22;8791;50.876;4.342;2022-10-13T13:42:19;15.30;99.90
17348;DHT22;8791;50.876;4.342;2022-10-13T13:44:46;15.00;99.90
17348;DHT22;8791;50.876;4.342;2022-10-13T13:47:18;15.10;99.90
17348;DHT22;8791;50.876;4.342;2022-10-13T13:49:45;15.30;99.90
17348;DHT22;8791;50.876;4.342;2022-10-13T13:52:12;15.40;99.90
17348;DHT22;8791;50.876;4.342;2022-10-13T13:54:39;15.50;99.90
17348;DHT22;8791;50.876;4.342;2022-10-13T13:57:08;15.50;99.90
17348;DHT22;8791;50.876;4.342;2022-10-13T13:59:35;15.40;99.90
17348;DHT22;8791;50.876;4.342;2022-10-13T14:02:02;15.40;99.90
17348;DHT22;8791;50.876;4.342;2022-10-13T14:04:29;15.40;99.90
17348;DHT22;8791;50.876;4.342;2022-10-13T14:06:56;15.40;99.90
17348;DHT22;8791;50.876;4.342;2022-10-13T14:09:23;15.50;99.90
17348;DHT22;8791;50.876;4.342;2022-10-13T14:11:49;15.40;99.90
17348;DHT22;8791;50.876;4.342;2022-10-13T14:14:18;15.10;99.90
17348;DHT22;8791;50.876;4.342;2022-10-13T14:16:44;15.10;99.90
17348;DHT22;8791;50.876;4.342;2022-10-13T14:19:11;15.30;99.90
17348;DHT22;8791;50.876;4.342;2022-10-13T14:21:38;15.30;99.90
17348;DHT22;8791;50.876;4.342;2022-10-13T14:24:05;15.40;99.90
17348;DHT22;8791;50.876;4.342;2022-10-13T14:26:32;15.30;99.90
17348;DHT22;8791;50.876;4.342;2022-10-13T14:28:59;15.40;99.90
17348;DHT22;8791;50.876;4.342;2022-10-13T14:31:27;15.50;99.90
17348;DHT22;8791;50.876;4.342;2022-10-13T14:33:55;15.50;99.90
17348;DHT22;8791;50.876;4.342;2022-10-13T14:36:22;15.60;99.90
17348;DHT22;8791;50.876;4.342;2022-10-13T14:38:49;15.60;99.90
17348;DHT22;8791;50.876;4.342;2022-10-13T14:41:16;15.50;99.90
17348;DHT22;8791;50.876;4.342;2022-10-13T14:43:44;15.50;99.90
17348;DHT22;8791;50.876;4.342;2022-10-13T14:46:11;15.70;99.90
17348;DHT22;8791;50.876;4.342;2022-10-13T14:48:39;15.50;99.90
17348;DHT22;8791;50.876;4.342;2022-10-13T14:51:07;15.50;99.90
17348;DHT22;8791;50.876;4.342;2022-10-13T14:53:36;15.30;99.90
17348;DHT22;8791;50.876;4.342;2022-10-13T14:56:14;15.30;99.90
17348;DHT22;8791;50.876;4.342;2022-10-13T14:58:42;15.30;99.90
17348;DHT22;8791;50.876;4.342;2022-10-13T15:01:09;15.30;99.90
17348;DHT22;8791;50.876;4.342;2022-10-13T15:03:35;15.40;99.90
17348;DHT22;8791;50.876;4.342;2022-10-13T15:06:04;15.40;99.90
17348;DHT22;8791;50.876;4.342;2022-10-13T15:08:30;15.40;99.90
17348;DHT22;8791;50.876;4.342;2022-10-13T15:10:58;15.20;99.90
17348;DHT22;8791;50.876;4.342;2022-10-13T15:13:25;15.10;99.90
17348;DHT22;8791;50.876;4.342;2022-10-13T15:15:52;15.20;99.90
17348;DHT22;8791;50.876;4.342;2022-10-13T15:18:19;15.30;99.90
17348;DHT22;8791;50.876;4.342;2022-10-13T15:20:46;15.40;99.90
17348;DHT22;8791;50.876;4.342;2022-10-13T15:23:15;15.50;99.90
17348;DHT22;8791;50.876;4.342;2022-10-13T15:25:48;15.40;99.90
17348;DHT22;8791;50.876;4.342;2022-10-13T15:28:15;15.10;99.90
17348;DHT22;8791;50.876;4.342;2022-10-13T15:30:42;15.10;99.90
17348;DHT22;8791;50.876;4.342;2022-10-13T15:33:09;15.10;99.90
17348;DHT22;8791;50.876;4.342;2022-10-13T15:35:36;15.00;99.90
17348;DHT22;8791;50.876;4.342;2022-10-13T15:38:02;14.90;99.90
17348;DHT22;8791;50.876;4.342;2022-10-13T15:40:30;14.80;99.90
17348;DHT22;8791;50.876;4.342;2022-10-13T15:42:59;14.90;99.90
17348;DHT22;8791;50.876;4.342;2022-10-13T15:45:26;14.90;99.90
17348;DHT22;8791;50.876;4.342;2022-10-13T15:47:53;15.00;99.90
17348;DHT22;8791;50.876;4.342;2022-10-13T15:50:22;15.00;99.90
17348;DHT22;8791;50.876;4.342;2022-10-13T15:52:48;14.90;99.90
17348;DHT22;8791;50.876;4.342;2022-10-13T15:55:16;14.90;99.90
17348;DHT22;8791;50.876;4.342;2022-10-13T15:57:45;15.00;99.90
17348;DHT22;8791;50.876;4.342;2022-10-13T16:00:12;15.00;99.90
17348;DHT22;8791;50.876;4.342;2022-10-13T16:02:41;14.90;99.90
17348;DHT22;8791;50.876;4.342;2022-10-13T16:05:09;15.00;99.90
17348;DHT22;8791;50.876;4.342;2022-10-13T16:07:38;15.00;99.90
17348;DHT22;8791;50.876;4.342;2022-10-13T16:10:06;15.00;99.90
17348;DHT22;8791;50.876;4.342;2022-10-13T16:12:33;14.90;99.90